createdAt,value
2022-11-29T00:01:56.341Z,101298.88
2022-11-29T00:04:44.125Z,101276.81
2022-11-29T00:07:31.698Z,101292.16
2022-11-29T00:10:19.281Z,101294.34
2022-11-29T00:13:06.886Z,101295.16
2022-11-29T00:15:54.276Z,101302.44
2022-11-29T00:18:42.252Z,101303.25
2022-11-29T00:21:30.351Z,101309.13
2022-11-29T00:24:18.143Z,101307.97
2022-11-29T00:27:05.622Z,101309.34
2022-11-29T00:29:53.060Z,101318.66
2022-11-29T00:32:40.585Z,101312.72
2022-11-29T00:35:28.371Z,101304.00
2022-11-29T00:38:16.208Z,101312.16
2022-11-29T00:41:04.147Z,101309.81
2022-11-29T00:43:51.616Z,101311.59
2022-11-29T00:46:39.203Z,101317.03
2022-11-29T00:49:26.706Z,101312.00
2022-11-29T00:52:14.304Z,101307.31
2022-11-29T00:55:01.787Z,101308.91
2022-11-29T00:57:49.296Z,101306.56
2022-11-29T01:00:36.996Z,101306.50
2022-11-29T01:03:25.391Z,101301.16
2022-11-29T01:06:15.946Z,101309.47
2022-11-29T01:09:04.290Z,101304.34
2022-11-29T01:11:52.147Z,101312.13
2022-11-29T01:14:40.037Z,101311.31
2022-11-29T01:17:27.748Z,101312.97
2022-11-29T01:20:16.314Z,101313.66
2022-11-29T01:23:04.114Z,101312.38
2022-11-29T01:25:59.765Z,101313.66
2022-11-29T01:28:48.775Z,101303.22
2022-11-29T01:31:36.775Z,101307.97
2022-11-29T01:34:24.169Z,101314.00
2022-11-29T01:37:11.529Z,101316.75
2022-11-29T01:39:59.863Z,101308.50
2022-11-29T01:42:47.271Z,101304.38
2022-11-29T01:45:38.437Z,101303.31
2022-11-29T01:48:28.994Z,101300.13
2022-11-29T01:51:16.940Z,101299.50
2022-11-29T01:54:05.219Z,101303.31
2022-11-29T01:56:53.271Z,101303.88
2022-11-29T01:59:49.912Z,101302.69
2022-11-29T02:02:43.631Z,101302.00
2022-11-29T02:05:33.635Z,101303.06
2022-11-29T02:08:27.732Z,101304.78
2022-11-29T02:11:26.918Z,101306.31
2022-11-29T02:14:47.797Z,101308.03
2022-11-29T02:17:48.790Z,101304.53
2022-11-29T02:21:12.059Z,101305.72
2022-11-29T02:24:34.321Z,101315.13
2022-11-29T02:28:04.841Z,101310.50
2022-11-29T02:31:07.178Z,101312.81
2022-11-29T02:34:10.590Z,101313.84
2022-11-29T02:37:35.628Z,101311.66
2022-11-29T02:40:58.535Z,101305.16
2022-11-29T02:43:59.149Z,101303.84
2022-11-29T02:47:11.741Z,101307.84
2022-11-29T02:50:49.826Z,101310.94
2022-11-29T02:53:40.224Z,101310.59
2022-11-29T02:56:59.359Z,101307.69
2022-11-29T03:00:05.203Z,101312.22
2022-11-29T03:03:03.525Z,101303.06
2022-11-29T03:06:07.995Z,101306.75
2022-11-29T03:09:10.655Z,101311.34
2022-11-29T03:12:18.111Z,101321.03
2022-11-29T03:15:24.215Z,101315.94
2022-11-29T03:18:34.431Z,101315.72
2022-11-29T03:21:33.885Z,101328.41
2022-11-29T03:24:26.196Z,101333.00
2022-11-29T03:27:19.549Z,101330.25
2022-11-29T03:30:10.474Z,101333.09
2022-11-29T03:33:12.932Z,101322.66
2022-11-29T03:36:20.553Z,101337.41
2022-11-29T03:39:17.590Z,101342.97
2022-11-29T03:42:13.084Z,101339.00
2022-11-29T03:45:09.909Z,101338.50
2022-11-29T03:48:07.108Z,101345.97
2022-11-29T03:50:59.865Z,101348.16
2022-11-29T03:54:16.230Z,101344.94
2022-11-29T03:57:03.938Z,101346.06
2022-11-29T04:00:11.752Z,101346.06
2022-11-29T04:03:36.471Z,101347.59
2022-11-29T04:06:32.858Z,101353.19
2022-11-29T04:09:26.414Z,101348.88
2022-11-29T04:13:11.593Z,101353.41
2022-11-29T04:16:11.093Z,101349.13
2022-11-29T04:19:16.423Z,101350.91
2022-11-29T04:22:04.610Z,101342.78
2022-11-29T04:25:04.231Z,101352.66
2022-11-29T04:28:19.772Z,101349.41
2022-11-29T04:31:19.971Z,101353.13
2022-11-29T04:34:37.981Z,101351.25
2022-11-29T04:38:06.232Z,101358.16
2022-11-29T04:41:30.198Z,101358.88
2022-11-29T04:44:48.835Z,101363.16
2022-11-29T04:47:44.227Z,101367.00
2022-11-29T04:50:43.892Z,101362.97
2022-11-29T04:53:49.591Z,101369.94
2022-11-29T04:56:47.666Z,101365.88
2022-11-29T04:59:53.776Z,101371.06
2022-11-29T05:02:56.746Z,101379.06
2022-11-29T05:05:51.358Z,101379.66
2022-11-29T05:08:59.501Z,101382.44
2022-11-29T05:11:46.878Z,101376.56
2022-11-29T05:14:49.548Z,101378.72
2022-11-29T05:17:49.939Z,101378.19
2022-11-29T05:20:47.876Z,101391.06
2022-11-29T05:24:03.928Z,101388.41
2022-11-29T05:26:56.718Z,101389.56
2022-11-29T05:30:13.360Z,101401.72
2022-11-29T05:33:15.053Z,101402.88
2022-11-29T05:36:11.070Z,101401.81
2022-11-29T05:39:10.447Z,101413.53
2022-11-29T05:42:25.376Z,101408.03
2022-11-29T05:45:25.204Z,101416.03
2022-11-29T05:48:24.802Z,101417.41
2022-11-29T05:51:21.640Z,101425.59
2022-11-29T05:54:24.762Z,101427.28
2022-11-29T05:57:15.204Z,101431.81
2022-11-29T06:00:05.567Z,101430.38
2022-11-29T06:03:34.816Z,101432.31
2022-11-29T06:06:40.536Z,101435.22
2022-11-29T06:09:32.225Z,101444.59
2022-11-29T06:12:22.069Z,101438.47
2022-11-29T06:15:23.660Z,101443.56
2022-11-29T06:18:33.199Z,101445.41
2022-11-29T06:21:26.507Z,101444.78
2022-11-29T06:24:39.947Z,101456.09
2022-11-29T06:27:48.652Z,101454.00
2022-11-29T06:30:50.976Z,101455.34
2022-11-29T06:34:09.330Z,101464.50
2022-11-29T06:37:19.968Z,101462.75
2022-11-29T06:40:12.276Z,101466.13
2022-11-29T06:43:00.170Z,101468.56
2022-11-29T06:45:56.095Z,101479.56
2022-11-29T06:48:51.220Z,101470.53
2022-11-29T06:52:12.780Z,101478.53
2022-11-29T06:55:15.963Z,101470.03
2022-11-29T06:58:21.710Z,101472.81
2022-11-29T07:01:19.537Z,101478.53
2022-11-29T07:04:31.309Z,101477.94
2022-11-29T07:07:20.598Z,101481.50
2022-11-29T07:10:17.533Z,101476.25
2022-11-29T07:13:05.294Z,101478.09
2022-11-29T07:16:08.038Z,101480.41
2022-11-29T07:19:17.574Z,101481.00
2022-11-29T07:22:23.628Z,101495.16
2022-11-29T07:25:34.433Z,101495.38
2022-11-29T07:28:35.476Z,101503.09
2022-11-29T07:31:38.456Z,101493.78
2022-11-29T07:35:16.685Z,101499.81
2022-11-29T07:38:27.029Z,101499.91
2022-11-29T07:41:28.799Z,101504.16
2022-11-29T07:44:47.057Z,101494.28
2022-11-29T07:47:36.078Z,101498.72
2022-11-29T07:50:25.166Z,101507.06
2022-11-29T07:53:17.636Z,101508.09
2022-11-29T07:56:05.603Z,101510.56
2022-11-29T07:58:53.031Z,101510.31
2022-11-29T08:01:40.693Z,101522.91
2022-11-29T08:04:28.401Z,101523.47
2022-11-29T08:07:15.996Z,101531.56
2022-11-29T08:10:06.258Z,101533.03
2022-11-29T08:12:53.789Z,101541.88
2022-11-29T08:15:45.571Z,101540.22
2022-11-29T08:18:33.869Z,101544.38
2022-11-29T08:21:21.360Z,101548.88
2022-11-29T08:24:09.319Z,101554.22
2022-11-29T08:26:56.795Z,101554.69
2022-11-29T08:29:44.205Z,101555.66
2022-11-29T08:32:31.638Z,101560.06
2022-11-29T08:35:21.760Z,101561.41
2022-11-29T08:38:09.581Z,101564.91
2022-11-29T08:41:04.748Z,101568.25
2022-11-29T08:43:52.854Z,101565.09
2022-11-29T08:46:58.960Z,101573.66
2022-11-29T08:50:01.435Z,101580.63
2022-11-29T08:53:09.011Z,101580.16
2022-11-29T08:56:00.002Z,101582.75
2022-11-29T08:58:47.460Z,101592.50
2022-11-29T09:01:34.945Z,101592.81
2022-11-29T09:04:22.395Z,101598.66
2022-11-29T09:07:09.911Z,101601.63
2022-11-29T09:09:57.588Z,101606.69
2022-11-29T09:12:45.632Z,101620.06
2022-11-29T09:15:33.239Z,101612.84
2022-11-29T09:18:20.883Z,101621.16
2022-11-29T09:21:10.141Z,101621.59
2022-11-29T09:23:59.885Z,101630.34
2022-11-29T09:26:50.474Z,101631.38
2022-11-29T09:29:37.878Z,101635.13
2022-11-29T09:32:25.206Z,101643.25
2022-11-29T09:35:13.002Z,101643.34
2022-11-29T09:38:00.527Z,101643.34
2022-11-29T09:40:57.645Z,101640.41
2022-11-29T09:44:04.025Z,101647.63
2022-11-29T09:46:54.469Z,101648.16
2022-11-29T09:49:57.871Z,101648.91
2022-11-29T09:53:10.083Z,101656.44
2022-11-29T09:56:09.025Z,101660.03
2022-11-29T09:59:03.904Z,101664.56
2022-11-29T10:02:18.379Z,101661.31
2022-11-29T10:05:23.556Z,101658.63
2022-11-29T10:08:25.700Z,101662.03
2022-11-29T10:11:24.745Z,101672.84
2022-11-29T10:14:24.222Z,101669.19
2022-11-29T10:17:39.497Z,101667.38
2022-11-29T10:20:30.393Z,101671.28
2022-11-29T10:23:30.041Z,101670.78
2022-11-29T10:26:18.294Z,101671.34
2022-11-29T10:29:05.882Z,101672.41
2022-11-29T10:31:57.117Z,101680.00
2022-11-29T10:34:45.277Z,101678.38
2022-11-29T10:37:33.116Z,101675.59
2022-11-29T10:40:32.341Z,101679.31
2022-11-29T10:43:20.186Z,101685.38
2022-11-29T10:46:17.585Z,101684.25
2022-11-29T10:49:07.387Z,101684.63
2022-11-29T10:51:54.754Z,101691.59
2022-11-29T10:54:44.604Z,101681.72
2022-11-29T10:57:32.678Z,101678.47
2022-11-29T11:00:20.412Z,101677.41
2022-11-29T11:03:26.289Z,101678.56
2022-11-29T11:06:44.926Z,101683.03
2022-11-29T11:09:43.105Z,101686.78
2022-11-29T11:12:33.568Z,101685.16
2022-11-29T11:15:31.125Z,101683.84
2022-11-29T11:18:24.103Z,101694.38
2022-11-29T11:21:14.819Z,101704.06
2022-11-29T11:24:03.272Z,101701.56
2022-11-29T11:26:50.905Z,101704.63
2022-11-29T11:29:42.515Z,101703.13
2022-11-29T11:32:30.000Z,101703.69
2022-11-29T11:35:24.235Z,101707.75
2022-11-29T11:38:16.958Z,101713.84
2022-11-29T11:41:16.811Z,101707.84
2022-11-29T11:44:07.111Z,101713.72
2022-11-29T11:47:05.464Z,101716.34
2022-11-29T11:50:07.704Z,101715.00
2022-11-29T11:53:17.498Z,101711.97
2022-11-29T11:56:12.994Z,101713.66
2022-11-29T11:59:00.835Z,101714.00
2022-11-29T12:01:48.687Z,101714.72
2022-11-29T12:04:38.043Z,101722.34
2022-11-29T12:07:59.759Z,101722.69
2022-11-29T12:10:44.932Z,101722.34
2022-11-29T12:13:36.007Z,101716.00
2022-11-29T12:16:31.538Z,101725.44
2022-11-29T12:19:25.758Z,101723.81
2022-11-29T12:22:19.879Z,101721.94
2022-11-29T12:25:14.024Z,101722.69
2022-11-29T12:28:01.490Z,101724.63
2022-11-29T12:31:16.878Z,101727.06
2022-11-29T12:34:56.129Z,101725.50
2022-11-29T12:37:48.064Z,101728.97
2022-11-29T12:40:54.096Z,101731.41
2022-11-29T12:44:15.762Z,101726.31
2022-11-29T12:47:39.765Z,101729.50
2022-11-29T12:50:57.575Z,101734.16
2022-11-29T12:53:54.470Z,101736.22
2022-11-29T12:57:10.028Z,101740.16
2022-11-29T13:00:19.051Z,101747.09
2022-11-29T13:03:47.539Z,101754.84
2022-11-29T13:07:26.909Z,101754.63
2022-11-29T13:10:23.105Z,101754.31
2022-11-29T13:14:42.146Z,101761.53
2022-11-29T13:17:40.537Z,101766.69
2022-11-29T13:20:49.395Z,101770.41
2022-11-29T13:24:10.397Z,101772.69
2022-11-29T13:26:55.732Z,101765.13
2022-11-29T13:29:43.988Z,101768.53
2022-11-29T13:32:45.762Z,101767.16
2022-11-29T13:35:49.251Z,101766.69
2022-11-29T13:39:11.217Z,101770.59
2022-11-29T13:42:21.984Z,101770.66
2022-11-29T13:45:32.141Z,101769.59
2022-11-29T13:48:34.656Z,101768.31
2022-11-29T13:51:28.900Z,101762.88
2022-11-29T13:54:32.965Z,101764.06
2022-11-29T13:57:21.033Z,101762.31
2022-11-29T14:00:33.860Z,101766.84
2022-11-29T14:03:24.814Z,101762.81
2022-11-29T14:06:25.194Z,101768.06
2022-11-29T14:09:19.247Z,101762.72
2022-11-29T14:12:19.925Z,101770.44
2022-11-29T14:15:28.577Z,101768.06
2022-11-29T14:18:44.515Z,101777.75
2022-11-29T14:22:07.091Z,101778.56
2022-11-29T14:25:16.312Z,101779.38
2022-11-29T14:28:45.954Z,101784.00
2022-11-29T14:31:56.464Z,101786.19
2022-11-29T14:34:50.832Z,101781.63
2022-11-29T14:38:15.035Z,101784.19
2022-11-29T14:41:30.027Z,101795.53
2022-11-29T14:44:35.070Z,101763.78
2022-11-29T14:47:38.627Z,101781.97
2022-11-29T14:50:35.389Z,101769.16
2022-11-29T14:53:37.869Z,101758.94
2022-11-29T14:56:31.990Z,101789.44
2022-11-29T14:59:44.660Z,101782.78
2022-11-29T15:02:45.141Z,101780.69
2022-11-29T15:05:58.138Z,101785.16
2022-11-29T15:08:58.659Z,101779.22
2022-11-29T15:12:06.563Z,101771.28
2022-11-29T15:15:13.132Z,101788.38
2022-11-29T15:18:16.841Z,101788.47
2022-11-29T15:21:32.694Z,101789.44
2022-11-29T15:24:28.718Z,101792.03
2022-11-29T15:27:20.366Z,101793.47
2022-11-29T15:30:34.605Z,101795.91
2022-11-29T15:33:26.464Z,101799.34
2022-11-29T15:36:23.704Z,101793.81
2022-11-29T15:39:29.986Z,101808.25
2022-11-29T15:42:18.219Z,101793.75
2022-11-29T15:45:36.408Z,101787.16
2022-11-29T15:48:33.894Z,101795.38
2022-11-29T15:51:42.858Z,101799.03
2022-11-29T15:54:49.385Z,101781.94
2022-11-29T15:57:49.648Z,101803.22
2022-11-29T16:00:42.653Z,101805.81
2022-11-29T16:03:49.260Z,101790.25
2022-11-29T16:07:00.566Z,101818.16
2022-11-29T16:09:58.963Z,101824.16
2022-11-29T16:12:57.502Z,101823.34
2022-11-29T16:15:56.153Z,101821.72
2022-11-29T16:18:49.656Z,101827.44
2022-11-29T16:21:41.231Z,101830.03
2022-11-29T16:24:42.763Z,101835.69
2022-11-29T16:27:34.519Z,101828.16
2022-11-29T16:30:31.920Z,101829.22
2022-11-29T16:33:31.735Z,101823.03
2022-11-29T16:36:30.584Z,101824.56
2022-11-29T16:39:24.926Z,101819.94
2022-11-29T16:42:33.776Z,101807.28
2022-11-29T16:48:47.177Z,101821.06
2022-11-29T16:51:46.520Z,101840.75
2022-11-29T16:54:39.720Z,101845.97
2022-11-29T16:57:32.868Z,101850.44
2022-11-29T17:00:39.995Z,101847.84
2022-11-29T17:03:34.320Z,101851.03
2022-11-29T17:06:23.429Z,101856.22
2022-11-29T17:09:22.834Z,101860.69
2022-11-29T17:12:13.949Z,101851.50
2022-11-29T17:15:01.373Z,101859.63
2022-11-29T17:17:49.431Z,101856.63
2022-11-29T17:20:37.248Z,101865.22
2022-11-29T17:23:24.637Z,101861.16
2022-11-29T17:26:13.911Z,101870.59
2022-11-29T17:29:01.389Z,101871.88
2022-11-29T17:31:50.687Z,101865.38
2022-11-29T17:34:51.308Z,101874.00
2022-11-29T17:37:42.022Z,101865.19
2022-11-29T17:40:39.699Z,101892.63
2022-11-29T17:43:33.584Z,101868.97
2022-11-29T17:46:38.696Z,101873.63
2022-11-29T17:49:29.554Z,101886.94
2022-11-29T17:52:30.380Z,101884.81
2022-11-29T17:55:29.379Z,101894.69
2022-11-29T17:58:17.235Z,101903.44
2022-11-29T18:01:09.036Z,101904.00
2022-11-29T18:03:59.469Z,101896.22
2022-11-29T18:06:50.296Z,101898.63
2022-11-29T18:09:38.131Z,101904.25
2022-11-29T18:12:25.786Z,101896.47
2022-11-29T18:15:13.255Z,101897.97
2022-11-29T18:18:06.590Z,101898.44
2022-11-29T18:20:58.299Z,101900.88
2022-11-29T18:23:56.868Z,101902.50
2022-11-29T18:26:44.354Z,101905.81
2022-11-29T18:29:38.912Z,101915.00
2022-11-29T18:32:27.543Z,101896.50
2022-11-29T18:35:15.165Z,101906.41
2022-11-29T18:38:18.903Z,101902.69
2022-11-29T18:41:13.864Z,101905.34
2022-11-29T18:44:06.260Z,101904.53
2022-11-29T18:46:53.608Z,101904.41
2022-11-29T18:49:41.239Z,101904.28
2022-11-29T18:53:04.646Z,101897.66
2022-11-29T18:56:03.293Z,101891.72
2022-11-29T18:58:58.165Z,101897.78
2022-11-29T19:01:48.544Z,101896.38
2022-11-29T19:04:37.548Z,101887.19
2022-11-29T19:07:25.059Z,101892.25
2022-11-29T19:10:12.576Z,101896.03
2022-11-29T19:13:00.384Z,101892.91
2022-11-29T19:15:55.094Z,101888.13
2022-11-29T19:18:43.449Z,101887.09
2022-11-29T19:21:34.790Z,101891.84
2022-11-29T19:24:30.991Z,101901.50
2022-11-29T19:27:18.409Z,101898.25
2022-11-29T19:30:06.884Z,101902.44
2022-11-29T19:33:02.267Z,101908.88
2022-11-29T19:35:49.659Z,101907.25
2022-11-29T19:38:38.389Z,101909.34
2022-11-29T19:41:34.115Z,101911.28
2022-11-29T19:44:26.515Z,101913.97
2022-11-29T19:47:17.058Z,101910.16
2022-11-29T19:50:04.961Z,101908.38
2022-11-29T19:52:52.373Z,101913.50
2022-11-29T19:55:43.891Z,101912.31
2022-11-29T19:58:32.356Z,101909.59
2022-11-29T20:01:35.948Z,101920.53
2022-11-29T20:04:26.918Z,101913.78
2022-11-29T20:07:14.274Z,101915.75
2022-11-29T20:10:01.666Z,101920.53
2022-11-29T20:12:49.298Z,101924.38
2022-11-29T20:15:36.740Z,101925.16
2022-11-29T20:18:24.301Z,101933.63
2022-11-29T20:21:14.571Z,101933.75
2022-11-29T20:24:04.893Z,101938.53
2022-11-29T20:26:52.225Z,101939.00
2022-11-29T20:29:39.604Z,101940.63
2022-11-29T20:32:27.102Z,101930.16
2022-11-29T20:35:17.209Z,101935.28
2022-11-29T20:38:07.463Z,101932.00
2022-11-29T20:41:02.724Z,101934.44
2022-11-29T20:43:55.932Z,101932.00
2022-11-29T20:46:50.698Z,101931.53
2022-11-29T20:49:38.407Z,101926.66
2022-11-29T20:52:32.622Z,101936.53
2022-11-29T20:55:20.845Z,101932.97
2022-11-29T20:58:08.675Z,101931.31
2022-11-29T21:00:56.290Z,101939.03
2022-11-29T21:03:44.165Z,101931.81
2022-11-29T21:06:34.325Z,101937.16
2022-11-29T21:09:21.704Z,101930.28
2022-11-29T21:12:09.736Z,101928.06
2022-11-29T21:14:58.163Z,101935.41
2022-11-29T21:17:45.704Z,101939.06
2022-11-29T21:20:33.588Z,101933.13
2022-11-29T21:23:21.207Z,101938.25
2022-11-29T21:26:15.945Z,101940.66
2022-11-29T21:29:09.338Z,101935.31
2022-11-29T21:31:57.193Z,101937.44
2022-11-29T21:34:44.780Z,101938.78
2022-11-29T21:37:32.269Z,101945.53
2022-11-29T21:40:19.689Z,101950.22
2022-11-29T21:43:07.051Z,101944.88
2022-11-29T21:45:54.416Z,101946.00
2022-11-29T21:48:42.454Z,101941.16
2022-11-29T21:51:29.834Z,101942.66
2022-11-29T21:54:17.678Z,101947.41
2022-11-29T21:57:05.040Z,101942.78
2022-11-29T21:59:52.831Z,101946.50
2022-11-29T22:02:40.257Z,101940.66
2022-11-29T22:05:27.779Z,101946.00
2022-11-29T22:08:15.209Z,101950.81
2022-11-29T22:11:34.394Z,101950.44
2022-11-29T22:14:22.072Z,101952.31
2022-11-29T22:17:09.617Z,101949.03
2022-11-29T22:19:56.935Z,101954.41
2022-11-29T22:22:45.300Z,101961.97
2022-11-29T22:25:32.655Z,101963.00
2022-11-29T22:28:20.090Z,101953.94
2022-11-29T22:31:09.884Z,101951.84
2022-11-29T22:33:57.744Z,101953.94
2022-11-29T22:36:45.964Z,101954.53
2022-11-29T22:39:33.414Z,101956.38
2022-11-29T22:42:20.760Z,101954.16
2022-11-29T22:45:08.366Z,101949.03
2022-11-29T22:47:55.682Z,101953.50
2022-11-29T22:50:43.023Z,101955.13
2022-11-29T22:53:30.447Z,101962.56
2022-11-29T22:56:18.406Z,101960.47
2022-11-29T22:59:06.661Z,101964.19
2022-11-29T23:01:54.189Z,101960.13
2022-11-29T23:04:41.469Z,101968.50
2022-11-29T23:07:28.905Z,101971.25
2022-11-29T23:10:16.259Z,101969.53
2022-11-29T23:13:03.698Z,101973.72
2022-11-29T23:15:54.355Z,101975.44
2022-11-29T23:18:42.668Z,101980.47
2022-11-29T23:21:36.607Z,101973.03
2022-11-29T23:24:24.046Z,101972.66
2022-11-29T23:27:11.333Z,101965.56
2022-11-29T23:29:58.692Z,101963.59
2022-11-29T23:32:46.037Z,101970.81
2022-11-29T23:35:33.766Z,101968.38
2022-11-29T23:38:21.198Z,101964.06
2022-11-29T23:41:09.772Z,101968.00
2022-11-29T23:43:57.409Z,101969.53
2022-11-29T23:46:44.766Z,101966.88
2022-11-29T23:49:35.313Z,101973.25
2022-11-29T23:52:22.919Z,101972.91
2022-11-29T23:55:12.416Z,101966.63
2022-11-29T23:58:02.692Z,101968.38
